Terminal Aerodrome Forecast
Issued by NWS Upton, NY

Home | Current Version | Previous Version | Text Only | Print | Product List | Glossary On
Versions: 1 2 3 4 5 6 7 8 9 10 11 12 13 14 15 16 17 18 19 20 21 22 23 24 25 26 27 28
000
FTUS41 KOKX 211700 RRA
TAFEWR
TAF
KEWR 211745Z 2118/2224 31004KT 6SM HZ OVC015
      TEMPO 2118/2120 4SM HZ BKN009
     FM212000 16006KT 6SM HZ SCT025
      TEMPO 2120/2121 BKN025
     FM212300 18005KT P6SM SCT025 SCT050
      TEMPO 2200/2202 BKN025
     FM220200 25006KT P6SM BKN050
     FM220500 28009KT P6SM SCT050
     FM221200 29014G22KT P6SM FEW035
     FM221800 30016KT P6SM FEW050=

USA.gov is the U.S. government's official web portal to all federal, state and local government web resources and services.